createdAt,value
2024-05-09T00:01:54.093Z,2.70
2024-05-09T00:04:24.437Z,2.38
2024-05-09T00:06:54.777Z,2.08
2024-05-09T00:09:27.880Z,2.03
2024-05-09T00:11:58.378Z,2.17
2024-05-09T00:14:28.837Z,2.38
2024-05-09T00:16:59.304Z,2.03
2024-05-09T00:19:29.981Z,2.13
2024-05-09T00:22:00.345Z,2.20
2024-05-09T00:24:33.438Z,2.63
2024-05-09T00:27:03.780Z,2.75
2024-05-09T00:29:34.123Z,2.70
2024-05-09T00:32:04.566Z,2.58
2024-05-09T00:34:35.169Z,2.75
2024-05-09T00:37:05.610Z,2.83
2024-05-09T00:39:38.750Z,2.60
2024-05-09T00:42:09.132Z,2.47
2024-05-09T00:44:39.451Z,2.92
2024-05-09T00:47:10.597Z,2.65
2024-05-09T00:49:41.444Z,3.00
2024-05-09T00:52:13.544Z,3.45
2024-05-09T00:54:46.626Z,3.00
2024-05-09T00:57:17.307Z,3.00
2024-05-09T00:59:48.019Z,2.78
2024-05-09T01:02:19.101Z,3.63
2024-05-09T01:07:20.109Z,3.47
2024-05-09T01:09:53.119Z,3.50
2024-05-09T01:12:24.941Z,2.85
2024-05-09T01:14:55.467Z,3.22
2024-05-09T01:17:25.928Z,3.05
2024-05-09T01:19:56.311Z,3.45
2024-05-09T01:22:28.588Z,3.05
2024-05-09T01:25:01.466Z,3.30
2024-05-09T01:27:32.953Z,3.30
2024-05-09T01:30:07.044Z,2.90
2024-05-09T01:32:39.799Z,3.25
2024-05-09T01:35:10.539Z,3.90
2024-05-09T01:37:40.872Z,3.10
2024-05-09T01:40:18.582Z,3.78
2024-05-09T01:42:52.689Z,3.67
2024-05-09T01:45:22.963Z,3.90
2024-05-09T01:47:53.488Z,3.78
2024-05-09T01:50:35.736Z,2.92
2024-05-09T01:53:10.198Z,3.88
2024-05-09T01:55:44.360Z,3.53
2024-05-09T01:58:14.955Z,3.72
2024-05-09T02:00:45.682Z,4.00
2024-05-09T02:03:17.779Z,3.50
2024-05-09T02:05:50.168Z,3.78
2024-05-09T02:08:22.226Z,4.22
2024-05-09T02:10:55.537Z,3.55
2024-05-09T02:13:26.037Z,3.15
2024-05-09T02:15:56.453Z,3.15
2024-05-09T02:18:26.925Z,3.00
2024-05-09T02:20:57.356Z,3.42
2024-05-09T02:23:27.709Z,3.10
2024-05-09T02:26:00.808Z,3.42
2024-05-09T02:28:31.232Z,3.17
2024-05-09T02:31:01.612Z,3.17
2024-05-09T02:33:32.148Z,3.90
2024-05-09T02:36:00.027Z,4.07
2024-05-09T02:38:30.411Z,3.92
2024-05-09T02:41:01.034Z,3.25
2024-05-09T02:43:31.479Z,3.67
2024-05-09T02:45:59.105Z,3.60
2024-05-09T02:48:29.607Z,3.50
2024-05-09T02:50:57.283Z,3.75
2024-05-09T02:53:27.635Z,3.92
2024-05-09T02:55:55.555Z,3.83
2024-05-09T02:58:28.581Z,4.13
2024-05-09T03:00:56.392Z,3.42
2024-05-09T03:03:27.144Z,3.38
2024-05-09T03:08:25.368Z,3.20
2024-05-09T03:10:53.172Z,3.30
2024-05-09T03:13:23.528Z,2.80
2024-05-09T03:15:53.886Z,3.88
2024-05-09T03:18:24.320Z,3.40
2024-05-09T03:20:52.079Z,2.90
2024-05-09T03:23:22.439Z,3.75
2024-05-09T03:25:50.296Z,3.63
2024-05-09T03:28:20.680Z,3.63
2024-05-09T03:30:48.418Z,3.35
2024-05-09T03:33:21.842Z,2.95
2024-05-09T03:35:49.905Z,3.00
2024-05-09T03:38:20.342Z,3.03
2024-05-09T03:40:51.916Z,2.50
2024-05-09T03:43:23.047Z,2.78
2024-05-09T03:45:53.531Z,2.95
2024-05-09T03:48:24.126Z,2.70
2024-05-09T03:50:54.815Z,3.42
2024-05-09T03:53:23.252Z,1.95
2024-05-09T03:55:53.695Z,3.17
2024-05-09T03:58:21.444Z,2.50
2024-05-09T04:00:54.696Z,2.83
2024-05-09T04:03:25.415Z,2.25
2024-05-09T04:05:56.530Z,2.10
2024-05-09T04:08:24.268Z,2.72
2024-05-09T04:10:54.665Z,2.08
2024-05-09T04:13:22.485Z,2.28
2024-05-09T04:15:52.813Z,2.03
2024-05-09T04:18:20.643Z,1.90
2024-05-09T04:20:53.767Z,1.70
2024-05-09T04:23:21.485Z,1.95
2024-05-09T04:25:51.960Z,2.08
2024-05-09T04:28:19.763Z,1.70
2024-05-09T04:30:50.061Z,1.50
2024-05-09T04:33:20.230Z,1.58
2024-05-09T04:35:53.491Z,1.55
2024-05-09T04:38:21.279Z,1.83
2024-05-09T04:40:51.762Z,1.83
2024-05-09T04:43:20.740Z,1.85
2024-05-09T04:45:51.087Z,2.25
2024-05-09T04:48:18.954Z,2.00
2024-05-09T04:50:49.441Z,2.25
2024-05-09T04:53:19.946Z,2.17
2024-05-09T04:55:50.465Z,2.13
2024-05-09T04:58:18.341Z,1.10
2024-05-09T05:00:48.815Z,1.90
2024-05-09T05:03:17.156Z,1.67
2024-05-09T05:05:48.223Z,1.67
2024-05-09T05:08:19.708Z,1.42
2024-05-09T05:10:50.700Z,1.02
2024-05-09T05:13:24.090Z,1.48
2024-05-09T05:15:57.688Z,1.38
2024-05-09T05:18:27.214Z,1.10
2024-05-09T05:20:58.971Z,1.17
2024-05-09T05:23:29.458Z,1.13
2024-05-09T05:26:00.036Z,1.05
2024-05-09T05:28:27.703Z,1.05
2024-05-09T05:30:58.023Z,1.02
2024-05-09T05:33:25.858Z,1.00
2024-05-09T05:35:57.536Z,1.15
2024-05-09T05:38:28.078Z,1.38
2024-05-09T05:41:01.911Z,1.17
2024-05-09T05:43:29.867Z,1.33
2024-05-09T05:46:00.297Z,0.90
2024-05-09T05:48:28.142Z,1.00
2024-05-09T05:51:00.419Z,0.93
2024-05-09T05:53:29.542Z,0.82
2024-05-09T05:56:02.650Z,1.08
2024-05-09T05:58:30.491Z,1.15
2024-05-09T06:01:01.070Z,0.85
2024-05-09T06:03:29.738Z,0.38
2024-05-09T06:06:00.596Z,0.60
2024-05-09T06:08:30.327Z,0.88
2024-05-09T06:11:03.746Z,0.60
2024-05-09T06:13:31.538Z,0.30
2024-05-09T06:16:05.135Z,0.77
2024-05-09T06:18:35.881Z,0.30
2024-05-09T06:21:04.025Z,0.80
2024-05-09T06:23:34.775Z,0.40
2024-05-09T06:26:05.639Z,0.30
2024-05-09T06:28:35.985Z,0.68
2024-05-09T06:31:03.790Z,0.30
2024-05-09T06:33:34.574Z,0.40
2024-05-09T06:36:02.899Z,1.42
2024-05-09T06:38:33.432Z,0.68
2024-05-09T06:41:01.309Z,0.50
2024-05-09T06:43:35.452Z,0.40
2024-05-09T06:46:03.267Z,2.05
2024-05-09T06:48:33.714Z,0.35
2024-05-09T06:51:01.644Z,0.63
2024-05-09T06:53:32.181Z,0.30
2024-05-09T06:56:01.292Z,0.45
2024-05-09T06:58:34.704Z,0.68
2024-05-09T07:01:02.465Z,0.70
2024-05-09T07:03:33.299Z,0.40
2024-05-09T07:06:02.742Z,0.70
2024-05-09T07:08:33.359Z,0.55
2024-05-09T07:11:01.224Z,0.70
2024-05-09T07:13:34.471Z,0.57
2024-05-09T07:16:03.225Z,0.50
2024-05-09T07:18:34.100Z,0.73
2024-05-09T07:23:33.371Z,0.57
2024-05-09T07:26:01.123Z,0.80
2024-05-09T07:28:34.353Z,0.50
2024-05-09T07:31:02.042Z,0.40
2024-05-09T07:33:32.495Z,0.70
2024-05-09T07:36:00.274Z,0.40
2024-05-09T07:38:30.725Z,0.50
2024-05-09T07:40:58.458Z,0.45
2024-05-09T07:43:28.887Z,0.90
2024-05-09T07:46:23.051Z,0.50
2024-05-09T07:53:57.051Z,0.50
2024-05-09T07:56:27.852Z,1.10
2024-05-09T07:58:58.600Z,0.60
2024-05-09T08:01:29.080Z,0.73
2024-05-09T08:03:59.825Z,0.60
2024-05-09T08:06:27.702Z,0.60
2024-05-09T08:09:03.092Z,0.80
2024-05-09T08:11:35.470Z,0.60
2024-05-09T08:14:05.789Z,0.55
2024-05-09T08:16:36.227Z,0.95
2024-05-09T08:19:06.754Z,0.52
2024-05-09T08:21:34.623Z,0.77
2024-05-09T08:24:05.044Z,0.40
2024-05-09T08:26:32.863Z,0.70
2024-05-09T08:29:03.249Z,0.70
2024-05-09T08:31:31.128Z,0.77
2024-05-09T08:34:04.527Z,0.90
2024-05-09T08:36:32.351Z,0.60
2024-05-09T08:39:02.767Z,0.57
2024-05-09T08:41:33.304Z,0.50
2024-05-09T08:44:04.523Z,0.55
2024-05-09T08:49:06.469Z,0.60
2024-05-09T08:51:34.613Z,0.43
2024-05-09T08:54:05.073Z,0.75
2024-05-09T08:56:35.473Z,0.60
2024-05-09T08:59:10.162Z,1.05
2024-05-09T09:01:42.011Z,0.70
2024-05-09T09:04:16.899Z,0.70
2024-05-09T09:06:45.054Z,0.82
2024-05-09T09:09:15.575Z,0.93
2024-05-09T09:11:43.336Z,1.08
2024-05-09T09:14:13.678Z,0.98
2024-05-09T09:16:41.401Z,0.80
2024-05-09T09:19:15.079Z,0.77
2024-05-09T09:21:43.330Z,0.70
2024-05-09T09:24:13.594Z,0.60
2024-05-09T09:26:41.221Z,1.15
2024-05-09T09:29:11.488Z,0.70
2024-05-09T09:31:39.527Z,0.70
2024-05-09T09:34:10.774Z,0.82
2024-05-09T09:36:43.325Z,0.95
2024-05-09T09:39:16.200Z,0.60
2024-05-09T09:41:47.289Z,0.65
2024-05-09T09:44:22.566Z,0.77
2024-05-09T09:46:52.009Z,0.82
2024-05-09T09:49:22.944Z,0.73
2024-05-09T09:54:24.677Z,0.80
2024-05-09T09:56:56.972Z,0.63
2024-05-09T10:04:30.305Z,0.90
2024-05-09T10:07:08.478Z,1.05
2024-05-09T10:09:39.267Z,0.52
2024-05-09T10:12:11.116Z,0.98
2024-05-09T10:14:49.277Z,0.50
2024-05-09T10:17:17.325Z,0.88
2024-05-09T10:19:47.690Z,0.73
2024-05-09T10:22:27.030Z,1.20
2024-05-09T10:24:57.784Z,0.98
2024-05-09T10:30:00.473Z,0.68
2024-05-09T10:32:29.378Z,0.80
2024-05-09T10:35:03.983Z,1.00
2024-05-09T10:37:35.079Z,1.02
2024-05-09T10:42:42.256Z,0.85
2024-05-09T10:45:12.613Z,1.50
2024-05-09T10:47:42.470Z,1.30
2024-05-09T10:50:22.041Z,0.82
2024-05-09T10:52:56.288Z,1.50
2024-05-09T10:55:26.736Z,1.30
2024-05-09T10:57:54.466Z,1.40
2024-05-09T11:00:30.569Z,1.33
2024-05-09T11:03:03.545Z,1.58
2024-05-09T11:05:35.091Z,1.58
2024-05-09T11:08:06.445Z,1.00
2024-05-09T11:10:37.186Z,1.13
2024-05-09T11:13:05.502Z,1.73
2024-05-09T11:15:43.096Z,1.75
2024-05-09T11:18:24.963Z,1.95
2024-05-09T11:20:57.411Z,1.95
2024-05-09T11:23:30.813Z,1.33
2024-05-09T11:26:01.738Z,1.40
2024-05-09T11:28:31.187Z,1.63
2024-05-09T11:31:10.382Z,1.27
2024-05-09T11:33:40.082Z,1.02
2024-05-09T11:36:11.621Z,1.42
2024-05-09T11:38:42.130Z,1.48
2024-05-09T11:41:12.496Z,1.10
2024-05-09T11:43:40.220Z,1.35
2024-05-09T11:46:10.701Z,1.10
2024-05-09T11:48:39.956Z,1.67
2024-05-09T11:51:10.519Z,1.40
2024-05-09T11:53:38.303Z,1.50
2024-05-09T11:56:12.214Z,1.13
2024-05-09T11:58:40.055Z,1.35
2024-05-09T12:01:10.485Z,1.60
2024-05-09T12:03:38.427Z,1.42
2024-05-09T12:06:09.001Z,1.83
2024-05-09T12:08:36.771Z,1.60
2024-05-09T12:11:07.555Z,1.52
2024-05-09T12:13:37.929Z,1.90
2024-05-09T12:16:09.287Z,2.17
2024-05-09T12:18:37.295Z,1.92
2024-05-09T12:21:08.322Z,2.20
2024-05-09T12:26:06.242Z,1.85
2024-05-09T12:28:36.850Z,1.58
2024-05-09T12:31:07.650Z,1.52
2024-05-09T12:33:35.611Z,2.08
2024-05-09T12:36:05.963Z,1.88
2024-05-09T12:38:33.666Z,2.00
2024-05-09T12:41:04.048Z,2.13
2024-05-09T12:43:34.565Z,2.40
2024-05-09T12:46:05.388Z,2.13
2024-05-09T12:48:35.955Z,1.70
2024-05-09T12:51:03.848Z,1.48
2024-05-09T12:53:34.132Z,1.83
2024-05-09T12:56:03.617Z,1.55
2024-05-09T12:58:35.152Z,2.15
2024-05-09T13:01:05.749Z,1.42
2024-05-09T13:03:36.798Z,1.85
2024-05-09T13:06:04.867Z,2.17
2024-05-09T13:08:35.296Z,1.95
2024-05-09T13:11:03.053Z,1.98
2024-05-09T13:13:33.469Z,5.18
2024-05-09T13:16:01.198Z,2.28
2024-05-09T13:18:36.653Z,2.15
2024-05-09T13:21:04.713Z,2.03
2024-05-09T13:23:35.083Z,2.05
2024-05-09T13:26:02.951Z,2.20
2024-05-09T13:28:33.977Z,2.40
2024-05-09T13:31:01.761Z,2.00
2024-05-09T13:33:34.881Z,2.60
2024-05-09T13:36:02.799Z,2.60
2024-05-09T13:38:33.132Z,1.85
2024-05-09T13:41:00.818Z,1.80
2024-05-09T13:43:31.209Z,2.42
2024-05-09T13:45:59.315Z,2.13
2024-05-09T13:48:29.891Z,2.15
2024-05-09T13:51:00.456Z,2.53
2024-05-09T13:53:30.839Z,2.80
2024-05-09T13:55:58.646Z,2.20
2024-05-09T13:58:29.045Z,2.17
2024-05-09T14:00:57.079Z,2.17
2024-05-09T14:03:30.127Z,2.30
2024-05-09T14:06:04.205Z,2.38
2024-05-09T14:08:34.704Z,2.45
2024-05-09T14:11:02.646Z,2.45
2024-05-09T14:13:33.048Z,2.63
2024-05-09T14:16:00.986Z,2.13
2024-05-09T14:18:31.731Z,1.67
2024-05-09T14:20:59.627Z,2.08
2024-05-09T14:23:32.825Z,1.98
2024-05-09T14:26:00.559Z,2.40
2024-05-09T14:28:30.942Z,2.53
2024-05-09T14:30:58.759Z,1.88
2024-05-09T14:33:30.988Z,1.98
2024-05-09T14:35:59.048Z,1.70
2024-05-09T14:38:32.164Z,1.90
2024-05-09T14:40:59.989Z,2.25
2024-05-09T14:43:30.590Z,1.98
2024-05-09T14:45:58.631Z,2.00
2024-05-09T14:48:29.130Z,2.05
2024-05-09T14:50:56.990Z,1.63
2024-05-09T14:53:28.448Z,1.75
2024-05-09T14:55:58.919Z,1.20
2024-05-09T14:58:29.425Z,1.85
2024-05-09T15:00:57.151Z,1.70
2024-05-09T15:03:27.674Z,1.67
2024-05-09T15:05:55.543Z,1.55
2024-05-09T15:08:26.174Z,1.50
2024-05-09T15:10:54.103Z,1.20
2024-05-09T15:13:27.984Z,1.73
2024-05-09T15:15:56.200Z,1.58
2024-05-09T15:18:26.942Z,1.42
2024-05-09T15:20:54.773Z,1.83
2024-05-09T15:23:25.922Z,1.67
2024-05-09T15:28:26.665Z,1.90
2024-05-09T15:30:54.415Z,1.40
2024-05-09T15:33:24.785Z,1.50
2024-05-09T15:35:52.581Z,1.45
2024-05-09T15:38:22.998Z,1.50
2024-05-09T15:40:50.991Z,1.00
2024-05-09T15:43:21.867Z,1.42
2024-05-09T15:45:52.481Z,1.02
2024-05-09T15:48:23.142Z,0.98
2024-05-09T15:50:51.105Z,0.90
2024-05-09T15:53:21.413Z,1.10
2024-05-09T15:55:49.393Z,1.60
2024-05-09T15:58:19.947Z,1.25
2024-05-09T16:00:49.763Z,1.40
2024-05-09T16:03:24.995Z,1.02
2024-05-09T16:05:53.233Z,1.20
2024-05-09T16:08:23.833Z,1.38
2024-05-09T16:10:52.018Z,1.48
2024-05-09T16:13:22.583Z,1.38
2024-05-09T16:15:50.689Z,2.60
2024-05-09T16:18:21.769Z,1.05
2024-05-09T16:23:29.476Z,1.10
2024-05-09T16:25:57.514Z,0.88
2024-05-09T16:28:28.651Z,0.95
2024-05-09T16:30:56.525Z,1.60
2024-05-09T16:33:27.315Z,1.65
2024-05-09T16:35:58.319Z,1.05
2024-05-09T16:38:28.704Z,1.00
2024-05-09T16:40:56.442Z,1.00
2024-05-09T16:43:27.243Z,1.02
2024-05-09T16:45:54.973Z,0.80
2024-05-09T16:48:25.528Z,0.60
2024-05-09T16:50:53.304Z,0.80
2024-05-09T16:53:26.596Z,1.08
2024-05-09T16:55:54.442Z,1.10
2024-05-09T16:58:24.968Z,0.77
2024-05-09T17:00:52.875Z,1.10
2024-05-09T17:03:26.352Z,0.90
2024-05-09T17:05:54.496Z,0.75
2024-05-09T17:08:27.678Z,0.80
2024-05-09T17:10:55.947Z,0.70
2024-05-09T17:13:26.811Z,1.25
2024-05-09T17:15:57.294Z,1.10
2024-05-09T17:18:28.033Z,1.10
2024-05-09T17:20:58.425Z,0.77
2024-05-09T17:23:29.754Z,1.02
2024-05-09T17:26:01.560Z,0.85
2024-05-09T17:28:29.971Z,0.88
2024-05-09T17:31:00.764Z,1.05
2024-05-09T17:33:29.247Z,0.98
2024-05-09T17:35:59.684Z,0.80
2024-05-09T17:38:30.191Z,1.25
2024-05-09T17:41:00.849Z,1.00
2024-05-09T17:43:29.230Z,0.90
2024-05-09T17:45:59.696Z,1.23
2024-05-09T17:48:27.517Z,1.02
2024-05-09T17:50:58.144Z,1.40
2024-05-09T17:53:25.805Z,1.50
2024-05-09T17:56:00.743Z,1.20
2024-05-09T17:58:28.592Z,1.00
2024-05-09T18:00:59.221Z,1.23
2024-05-09T18:03:27.572Z,1.05
2024-05-09T18:05:58.088Z,1.05
2024-05-09T18:08:25.804Z,1.23
2024-05-09T18:10:59.044Z,1.05
2024-05-09T18:13:27.402Z,1.05
2024-05-09T18:15:58.125Z,1.42
2024-05-09T18:18:26.017Z,0.75
2024-05-09T18:20:56.585Z,1.00
2024-05-09T18:23:24.308Z,0.65
2024-05-09T18:25:56.647Z,0.70
2024-05-09T18:28:27.335Z,0.77
2024-05-09T18:30:57.698Z,1.20
2024-05-09T18:33:25.561Z,1.40
2024-05-09T18:35:56.330Z,1.33
2024-05-09T18:38:27.241Z,0.90
2024-05-09T18:40:55.083Z,2.15
2024-05-09T18:43:31.134Z,1.52
2024-05-09T18:46:06.629Z,1.00
2024-05-09T18:48:37.620Z,1.45
2024-05-09T18:53:35.967Z,1.60
2024-05-09T18:56:03.720Z,1.10
2024-05-09T18:58:34.029Z,1.48
2024-05-09T19:01:02.196Z,1.52
2024-05-09T19:03:35.596Z,1.75
2024-05-09T19:06:03.817Z,1.73
2024-05-09T19:08:34.355Z,1.73
2024-05-09T19:11:02.386Z,1.52
2024-05-09T19:13:33.108Z,1.38
2024-05-09T19:16:03.732Z,1.52
2024-05-09T19:18:34.437Z,1.77
2024-05-09T19:21:04.979Z,1.95
2024-05-09T19:23:35.481Z,2.17
2024-05-09T19:26:08.820Z,2.53
2024-05-09T19:28:36.342Z,1.90
2024-05-09T19:31:06.881Z,1.83
2024-05-09T19:33:38.614Z,2.05
2024-05-09T19:36:10.059Z,1.65
2024-05-09T19:38:38.229Z,1.73
2024-05-09T19:41:08.645Z,1.80
2024-05-09T19:43:36.497Z,2.30
2024-05-09T19:46:07.096Z,2.10
2024-05-09T19:48:37.712Z,2.30
2024-05-09T19:51:08.249Z,2.17
2024-05-09T19:53:36.198Z,2.85
2024-05-09T19:56:06.737Z,2.70
2024-05-09T19:58:34.675Z,2.35
2024-05-09T20:01:05.087Z,2.22
2024-05-09T20:03:37.115Z,2.55
2024-05-09T20:06:10.554Z,2.60
2024-05-09T20:08:38.295Z,2.60
2024-05-09T20:11:08.654Z,2.63
2024-05-09T20:13:37.370Z,2.25
2024-05-09T20:16:08.317Z,2.63
2024-05-09T20:21:06.843Z,2.38
2024-05-09T20:23:37.256Z,2.95
2024-05-09T20:26:07.937Z,2.67
2024-05-09T20:28:35.922Z,2.47
2024-05-09T20:31:06.665Z,2.67
2024-05-09T20:33:34.664Z,2.63
2024-05-09T20:36:04.986Z,2.90
2024-05-09T20:38:32.866Z,2.70
2024-05-09T20:41:05.893Z,2.58
2024-05-09T20:43:33.661Z,2.90
2024-05-09T20:46:03.976Z,2.70
2024-05-09T20:48:31.913Z,2.45
2024-05-09T20:51:02.311Z,2.92
2024-05-09T20:53:30.177Z,2.80
2024-05-09T20:56:00.468Z,2.60
2024-05-09T20:58:30.902Z,3.00
2024-05-09T21:01:01.446Z,3.10
2024-05-09T21:03:30.353Z,3.13
2024-05-09T21:06:01.122Z,3.03
2024-05-09T21:08:28.804Z,2.65
2024-05-09T21:10:59.290Z,2.92
2024-05-09T21:13:29.694Z,3.17
2024-05-09T21:16:00.091Z,2.75
2024-05-09T21:18:27.911Z,3.00
2024-05-09T21:20:58.272Z,3.25
2024-05-09T21:23:25.932Z,4.15
2024-05-09T21:25:56.207Z,3.58
2024-05-09T21:28:23.984Z,4.07
2024-05-09T21:30:57.435Z,4.00
2024-05-09T21:33:25.424Z,4.18
2024-05-09T21:35:55.827Z,3.90
2024-05-09T21:38:23.593Z,3.38
2024-05-09T21:40:54.138Z,4.13
2024-05-09T21:43:24.058Z,3.55
2024-05-09T21:45:57.419Z,3.08
2024-05-09T21:48:25.301Z,4.80
2024-05-09T21:50:55.750Z,4.10
2024-05-09T21:53:24.056Z,4.10
2024-05-09T21:55:54.479Z,4.53
2024-05-09T21:58:22.590Z,4.18
2024-05-09T22:00:53.019Z,4.35
2024-05-09T22:03:23.573Z,4.43
2024-05-09T22:05:53.969Z,4.68
2024-05-09T22:08:21.587Z,4.57
2024-05-09T22:10:52.064Z,5.03
2024-05-09T22:13:20.748Z,4.88
2024-05-09T22:15:51.058Z,4.50
2024-05-09T22:18:18.868Z,5.07
2024-05-09T22:20:51.968Z,4.30
2024-05-09T22:23:19.645Z,4.68
2024-05-09T22:25:50.025Z,4.45
2024-05-09T22:28:18.146Z,5.07
2024-05-09T22:30:48.555Z,5.00
2024-05-09T22:33:16.565Z,5.43
2024-05-09T22:35:47.743Z,4.68
2024-05-09T22:38:18.232Z,5.40
2024-05-09T22:40:49.976Z,5.10
2024-05-09T22:43:20.280Z,5.07
2024-05-09T22:45:51.879Z,5.97
2024-05-09T22:48:20.366Z,6.80
2024-05-09T22:50:50.860Z,5.72
2024-05-09T22:53:22.153Z,5.43
2024-05-09T22:55:52.572Z,5.43
2024-05-09T22:58:21.022Z,6.05
2024-05-09T23:00:51.665Z,5.20
2024-05-09T23:03:21.894Z,5.45
2024-05-09T23:05:53.099Z,5.43
2024-05-09T23:08:23.400Z,5.15
2024-05-09T23:10:53.955Z,4.93
2024-05-09T23:13:21.807Z,5.22
2024-05-09T23:15:52.367Z,5.30
2024-05-09T23:18:20.333Z,5.32
2024-05-09T23:20:50.696Z,5.13
2024-05-09T23:23:18.604Z,5.60
2024-05-09T23:25:52.861Z,5.88
2024-05-09T23:28:20.686Z,5.28
2024-05-09T23:30:51.095Z,5.57
2024-05-09T23:33:18.908Z,4.80
2024-05-09T23:35:49.390Z,5.63
2024-05-09T23:38:18.381Z,5.35
2024-05-09T23:40:52.428Z,4.95
2024-05-09T23:43:20.357Z,5.47
2024-05-09T23:45:50.791Z,5.32
2024-05-09T23:48:18.630Z,5.97
2024-05-09T23:50:49.019Z,5.53
2024-05-09T23:53:16.738Z,6.28
2024-05-09T23:55:46.997Z,6.05
2024-05-09T23:58:17.620Z,5.10
